Time;durP1;ratioP1;P1;durP2;ratioP2;P2;SDS_P1;SDS_P2;PMS_P1;PMS_P2;Temp;Humidity;BMP_temperature;BMP_pressure;BME280_temperature;BME280_humidity;BME280_pressure;Samples;Min_cycle;Max_cycle;Signal;HPM_P1;HPM_P2
2023/02/20 00:00:26;;;;;;;9.43;8.37;;;4.70;99.90;;;;;;5031918;28;20273;-63
2023/02/20 00:02:52;;;;;;;8.90;8.30;;;4.60;99.90;;;;;;5047271;28;20530;-63
2023/02/20 00:05:18;;;;;;;15.33;8.17;;;4.60;99.90;;;;;;5042809;28;20190;-63
2023/02/20 00:07:44;;;;;;;9.10;8.20;;;4.50;99.90;;;;;;5050338;28;20711;-63
2023/02/20 00:10:10;;;;;;;8.93;8.20;;;4.50;99.90;;;;;;5059884;28;20182;-63
2023/02/20 00:12:36;;;;;;;10.13;9.27;;;4.50;99.90;;;;;;5043410;28;20187;-63
2023/02/20 00:15:02;;;;;;;9.20;8.30;;;4.50;99.90;;;;;;5050632;28;20590;-63
2023/02/20 00:17:28;;;;;;;11.30;10.27;;;4.40;99.90;;;;;;5049899;28;20657;-63
2023/02/20 00:19:54;;;;;;;15.83;10.37;;;4.40;99.90;;;;;;5040547;28;20262;-63
2023/02/20 00:22:24;;;;;;;10.93;9.93;;;4.30;99.90;;;;;;5049171;28;20187;-63
2023/02/20 00:24:50;;;;;;;9.23;8.53;;;4.40;99.90;;;;;;5035937;28;20253;-63
2023/02/20 00:27:16;;;;;;;9.00;8.40;;;4.30;99.90;;;;;;5045328;28;20221;-64
2023/02/20 00:29:44;;;;;;;9.73;8.53;;;4.40;99.90;;;;;;5051875;28;20179;-63
2023/02/20 00:32:10;;;;;;;10.20;9.50;;;4.40;99.90;;;;;;5054816;28;20182;-63
2023/02/20 00:34:36;;;;;;;10.30;9.30;;;4.40;99.90;;;;;;5055137;28;20187;-63
2023/02/20 00:37:01;;;;;;;13.30;8.97;;;4.50;99.90;;;;;;5054795;28;20257;-63
2023/02/20 00:39:27;;;;;;;10.07;8.93;;;4.50;99.90;;;;;;5046353;28;20195;-63
2023/02/20 00:41:52;;;;;;;10.17;9.27;;;4.60;99.90;;;;;;5050906;28;20179;-63
2023/02/20 00:44:18;;;;;;;9.23;8.33;;;4.70;99.90;;;;;;5056620;28;20277;-63
2023/02/20 00:46:44;;;;;;;9.93;8.93;;;4.80;99.90;;;;;;5062445;28;20213;-63
2023/02/20 00:49:09;;;;;;;14.00;9.80;;;4.80;99.90;;;;;;5043576;28;20238;-63
2023/02/20 00:51:35;;;;;;;10.87;9.77;;;4.90;99.90;;;;;;5043831;28;20179;-63
2023/02/20 00:54:01;;;;;;;9.50;8.67;;;4.90;99.90;;;;;;5051096;28;20185;-63
2023/02/20 00:56:27;;;;;;;9.27;8.43;;;4.90;99.90;;;;;;5043748;28;20187;-63
2023/02/20 00:58:53;;;;;;;10.60;9.40;;;4.90;99.90;;;;;;5053681;28;20210;-63
2023/02/20 01:01:19;;;;;;;11.30;8.80;;;4.90;99.90;;;;;;5053386;28;20195;-63
2023/02/20 01:03:44;;;;;;;9.50;8.80;;;4.90;99.90;;;;;;5053791;28;20619;-63
2023/02/20 01:06:10;;;;;;;9.00;8.20;;;4.90;99.90;;;;;;5046214;28;20285;-63
2023/02/20 01:08:36;;;;;;;10.90;9.50;;;4.90;99.90;;;;;;5048017;28;20195;-63
2023/02/20 01:11:02;;;;;;;8.60;7.73;;;4.90;99.90;;;;;;5045341;28;20694;-63
2023/02/20 01:13:27;;;;;;;11.23;9.03;;;5.00;99.90;;;;;;5050789;28;20210;-63
2023/02/20 01:15:53;;;;;;;10.37;9.27;;;5.00;99.90;;;;;;5052801;28;20222;-63
2023/02/20 01:18:18;;;;;;;9.73;8.67;;;5.00;99.90;;;;;;5049547;28;20206;-63
2023/02/20 01:20:44;;;;;;;10.47;9.37;;;5.10;99.90;;;;;;5035565;28;20215;-63
2023/02/20 01:23:10;;;;;;;9.27;8.40;;;5.10;99.90;;;;;;5050745;28;20235;-63
2023/02/20 01:25:35;;;;;;;11.73;9.03;;;5.00;99.90;;;;;;5053614;28;20194;-63
2023/02/20 01:28:01;;;;;;;9.00;8.23;;;5.00;99.90;;;;;;5052606;28;20230;-63
2023/02/20 01:30:27;;;;;;;9.30;8.33;;;5.00;99.90;;;;;;5045431;28;20235;-63
2023/02/20 01:32:52;;;;;;;10.20;9.17;;;5.00;99.90;;;;;;5051905;28;20179;-63
2023/02/20 01:35:18;;;;;;;9.87;8.90;;;5.00;99.90;;;;;;5046532;28;20183;-63
2023/02/20 01:37:44;;;;;;;9.07;8.23;;;5.00;99.90;;;;;;5053920;28;20230;-63
2023/02/20 01:40:21;;;;;;;9.53;8.67;;;5.00;99.90;;;;;;5053633;28;20182;-63
2023/02/20 01:42:47;;;;;;;11.60;10.37;;;5.00;99.90;;;;;;5047423;28;20199;-63
2023/02/20 01:45:21;;;;;;;11.20;10.20;;;5.00;99.90;;;;;;5044219;28;20198;-63
2023/02/20 01:47:48;;;;;;;11.07;9.57;;;5.00;99.90;;;;;;5041347;28;20226;-63
2023/02/20 01:50:15;;;;;;;10.97;9.83;;;5.00;99.90;;;;;;5062796;22;20356;-64
2023/02/20 01:52:44;;;;;;;10.07;9.27;;;5.00;99.90;;;;;;5023525;28;20525;-64
2023/02/20 01:55:19;;;;;;;14.80;8.90;;;4.90;99.90;;;;;;5031683;28;20180;-66
2023/02/20 01:57:56;;;;;;;10.03;8.97;;;4.90;99.90;;;;;;5026705;28;20790;-66
2023/02/20 02:00:23;;;;;;;10.27;9.30;;;4.90;99.90;;;;;;5032826;28;20205;-63
2023/02/20 02:02:55;;;;;;;9.07;8.37;;;4.80;99.90;;;;;;5031028;28;20172;-65
2023/02/20 02:05:22;;;;;;;10.93;8.83;;;4.80;99.90;;;;;;5034352;28;20188;-63
2023/02/20 02:07:48;;;;;;;16.37;10.37;;;4.80;99.90;;;;;;5039146;28;20573;-63
2023/02/20 02:10:17;;;;;;;12.33;9.80;;;4.80;99.90;;;;;;5025766;28;20218;-64
2023/02/20 02:12:47;;;;;;;12.07;10.03;;;4.80;99.90;;;;;;5039039;28;20176;-64
2023/02/20 02:15:15;;;;;;;10.23;9.43;;;4.80;99.90;;;;;;5034515;28;20250;-64
2023/02/20 02:18:04;;;;;;;10.27;9.27;;;4.80;99.90;;;;;;5030583;28;20192;-65
2023/02/20 02:21:00;;;;;;;9.40;8.47;;;4.80;99.90;;;;;;5032153;28;20187;-65
2023/02/20 02:23:58;;;;;;;9.93;8.97;;;4.90;99.90;;;;;;5037913;28;20183;-65
2023/02/20 02:26:51;;;;;;;10.10;9.07;;;4.90;99.90;;;;;;5009525;28;20284;-64
2023/02/20 02:29:28;;;;;;;10.83;9.87;;;5.00;99.90;;;;;;5030538;28;20175;-64
2023/02/20 02:32:12;;;;;;;12.53;11.23;;;5.00;99.90;;;;;;5033941;28;20203;-64
2023/02/20 02:35:08;;;;;;;11.20;10.10;;;5.00;99.90;;;;;;5037376;28;20588;-64
2023/02/20 02:37:42;;;;;;;13.13;10.97;;;5.00;99.90;;;;;;5021358;28;20172;-64
2023/02/20 02:40:19;;;;;;;12.90;10.73;;;5.00;99.90;;;;;;5025217;28;20195;-64
2023/02/20 02:43:15;;;;;;;12.30;9.77;;;5.10;99.90;;;;;;5030355;28;20186;-64
2023/02/20 02:45:51;;;;;;;9.47;8.57;;;5.10;99.90;;;;;;5031867;28;20176;-65
2023/02/20 02:48:31;;;;;;;10.97;9.93;;;5.10;99.90;;;;;;5022945;28;20206;-65
2023/02/20 02:51:09;;;;;;;13.47;10.30;;;5.20;99.90;;;;;;5031414;28;20206;-65
2023/02/20 02:53:35;;;;;;;9.93;8.93;;;5.30;99.90;;;;;;5041331;28;20256;-64
2023/02/20 02:56:20;;;;;;;10.60;9.53;;;5.20;99.90;;;;;;5036375;28;20179;-64
2023/02/20 02:58:50;;;;;;;19.73;9.23;;;5.30;99.90;;;;;;5031852;28;20175;-65
2023/02/20 03:01:19;;;;;;;10.47;8.97;;;5.30;99.90;;;;;;5029218;28;20272;-64
2023/02/20 03:03:46;;;;;;;21.10;10.10;;;5.30;99.90;;;;;;5031072;28;20726;-64
2023/02/20 03:06:22;;;;;;;9.27;8.27;;;5.40;99.90;;;;;;5034617;28;20561;-64
2023/02/20 03:08:56;;;;;;;16.27;9.43;;;5.40;99.90;;;;;;5026681;28;20179;-64
2023/02/20 03:11:24;;;;;;;15.83;9.13;;;5.40;99.90;;;;;;5031407;28;20248;-64
2023/02/20 03:16:48;;;;;;;16.43;10.07;;;5.50;99.90;;;;;;5026495;28;20545;-65
2023/02/20 03:19:17;;;;;;;13.27;8.80;;;5.50;99.90;;;;;;5030192;28;20183;-65
2023/02/20 03:21:47;;;;;;;12.97;8.70;;;5.50;99.90;;;;;;5036236;28;20195;-64
2023/02/20 03:24:14;;;;;;;11.53;8.83;;;5.50;99.90;;;;;;5031857;28;20207;-65
2023/02/20 03:26:42;;;;;;;13.20;9.27;;;5.50;99.90;;;;;;5028340;28;20239;-65
2023/02/20 03:29:15;;;;;;;12.73;8.53;;;5.50;99.90;;;;;;5023043;28;20172;-64
2023/02/20 03:45:50;;;;;;;8.40;7.60;;;5.50;99.90;;;;;;5031807;28;20272;-64
2023/02/20 03:48:23;;;;;;;10.50;7.80;;;5.40;99.90;;;;;;5031618;28;20229;-64
2023/02/20 03:50:49;;;;;;;11.70;8.60;;;5.40;99.90;;;;;;5030595;28;20298;-65
2023/02/20 03:53:15;;;;;;;12.77;8.30;;;5.30;99.90;;;;;;5032392;28;20266;-64
2023/02/20 03:55:41;;;;;;;8.80;7.83;;;5.30;99.90;;;;;;5027916;28;20183;-65
2023/02/20 03:58:10;;;;;;;10.40;8.37;;;5.30;99.90;;;;;;5030774;28;20176;-64
2023/02/20 04:00:42;;;;;;;9.40;8.40;;;5.20;99.90;;;;;;5030995;28;20531;-64
2023/02/20 04:03:13;;;;;;;8.53;7.53;;;5.20;99.90;;;;;;5029378;28;20175;-64
2023/02/20 04:05:43;;;;;;;8.83;8.07;;;5.20;99.90;;;;;;5031347;28;20180;-64
2023/02/20 04:08:21;;;;;;;11.37;7.67;;;5.20;99.90;;;;;;5030241;28;20262;-64
2023/02/20 04:10:56;;;;;;;8.67;7.47;;;5.20;99.90;;;;;;5029644;28;20365;-65
2023/02/20 04:13:23;;;;;;;9.10;8.20;;;5.10;99.90;;;;;;5030300;28;20183;-64
2023/02/20 04:15:50;;;;;;;8.60;7.90;;;5.10;99.90;;;;;;5031049;28;20270;-64
2023/02/20 04:18:19;;;;;;;8.67;8.03;;;5.10;99.90;;;;;;5030911;28;20259;-64
2023/02/20 04:20:47;;;;;;;13.13;8.93;;;5.00;99.90;;;;;;5033999;28;20199;-64
2023/02/20 04:23:16;;;;;;;10.47;7.67;;;5.00;99.90;;;;;;5020555;28;20719;-64
2023/02/20 04:26:05;;;;;;;13.90;7.17;;;5.00;99.90;;;;;;5030366;28;20222;-64
2023/02/20 04:28:31;;;;;;;9.27;7.97;;;5.00;99.90;;;;;;5023022;28;20171;-63
2023/02/20 04:30:57;;;;;;;10.43;7.50;;;5.00;99.90;;;;;;5028689;28;20212;-63
2023/02/20 04:33:22;;;;;;;7.90;7.30;;;4.90;99.90;;;;;;5029695;28;20179;-64
2023/02/20 04:35:48;;;;;;;8.37;7.37;;;4.90;99.90;;;;;;5028668;28;20633;-63
2023/02/20 04:38:14;;;;;;;9.80;7.57;;;4.90;99.90;;;;;;5027309;28;20245;-64
2023/02/20 04:40:40;;;;;;;8.63;7.73;;;4.80;99.90;;;;;;5029992;28;20227;-64
2023/02/20 04:43:06;;;;;;;7.30;6.37;;;4.80;99.90;;;;;;5027587;28;20222;-64
2023/02/20 04:45:32;;;;;;;7.70;7.00;;;4.80;99.90;;;;;;5029891;28;20180;-64
2023/02/20 04:47:58;;;;;;;8.50;7.63;;;4.80;99.90;;;;;;5030640;28;20211;-64
2023/02/20 04:50:29;;;;;;;7.00;6.57;;;4.80;99.90;;;;;;5024988;28;20681;-65
2023/02/20 04:52:56;;;;;;;7.17;6.47;;;4.70;99.90;;;;;;5027670;28;20208;-65
2023/02/20 04:55:22;;;;;;;9.03;6.90;;;4.70;99.90;;;;;;5029311;28;20226;-64
2023/02/20 04:57:48;;;;;;;7.53;6.93;;;4.70;99.90;;;;;;5030525;28;20245;-64
2023/02/20 05:00:15;;;;;;;6.93;6.53;;;4.60;99.90;;;;;;5030252;28;20211;-65
2023/02/20 05:02:41;;;;;;;8.07;7.47;;;4.50;99.90;;;;;;5030269;28;20633;-64
2023/02/20 05:05:22;;;;;;;8.37;7.77;;;4.40;99.90;;;;;;5027905;28;20233;-64
2023/02/20 05:07:56;;;;;;;9.07;8.30;;;4.30;99.90;;;;;;5031561;28;20616;-65
2023/02/20 05:10:23;;;;;;;9.87;8.93;;;4.20;99.90;;;;;;5030994;28;20291;-64
2023/02/20 05:12:49;;;;;;;10.27;9.23;;;4.10;99.90;;;;;;5034375;28;20184;-64
2023/02/20 05:15:15;;;;;;;10.97;10.00;;;4.00;99.90;;;;;;5033167;28;20692;-64
2023/02/20 05:17:40;;;;;;;10.30;9.43;;;4.00;99.90;;;;;;5036310;28;20195;-65
2023/02/20 05:20:07;;;;;;;9.70;9.03;;;3.90;99.90;;;;;;5035900;28;20206;-64
2023/02/20 05:22:33;;;;;;;11.77;10.13;;;3.90;99.90;;;;;;5034098;28;20190;-64
2023/02/20 05:24:58;;;;;;;11.53;9.83;;;3.80;99.90;;;;;;5033171;28;20187;-65
2023/02/20 05:27:25;;;;;;;9.57;8.97;;;3.70;99.90;;;;;;5023029;28;20219;-65
2023/02/20 05:29:53;;;;;;;10.17;9.40;;;3.70;99.90;;;;;;5022897;28;20184;-64
2023/02/20 05:32:20;;;;;;;15.13;10.23;;;3.70;99.90;;;;;;5041363;28;20187;-64
2023/02/20 05:34:46;;;;;;;10.67;9.73;;;3.60;99.90;;;;;;5049477;28;20282;-65
2023/02/20 05:37:14;;;;;;;10.17;9.57;;;3.60;99.90;;;;;;5033406;28;20308;-64
2023/02/20 05:39:40;;;;;;;10.53;9.80;;;3.50;99.90;;;;;;5027317;28;20274;-64
2023/02/20 05:42:07;;;;;;;11.30;10.20;;;3.50;99.90;;;;;;5031496;28;20640;-65
2023/02/20 05:44:33;;;;;;;11.50;10.37;;;3.50;99.90;;;;;;5028488;28;20187;-65
2023/02/20 05:46:59;;;;;;;10.87;9.93;;;3.40;99.90;;;;;;5033474;28;20215;-65
2023/02/20 05:49:25;;;;;;;10.10;9.53;;;3.40;99.90;;;;;;5033263;28;20241;-65
2023/02/20 05:51:51;;;;;;;10.10;9.50;;;3.40;99.90;;;;;;5030759;28;20227;-65
2023/02/20 05:54:18;;;;;;;9.97;9.27;;;3.40;99.90;;;;;;5031255;28;20512;-65
2023/02/20 05:56:45;;;;;;;10.10;9.40;;;3.40;99.90;;;;;;5024301;28;20339;-65
2023/02/20 05:59:12;;;;;;;10.80;10.03;;;3.40;99.90;;;;;;5031865;28;20180;-65
2023/02/20 06:01:38;;;;;;;10.73;9.93;;;3.40;99.90;;;;;;5038305;28;20204;-64
2023/02/20 06:04:04;;;;;;;10.80;10.00;;;3.40;99.90;;;;;;5033431;28;20184;-65
2023/02/20 06:06:37;;;;;;;10.70;9.90;;;3.40;99.90;;;;;;5031965;28;20210;-65
2023/02/20 06:09:06;;;;;;;10.40;9.67;;;3.30;99.90;;;;;;5033281;28;20171;-64
2023/02/20 06:11:32;;;;;;;10.87;9.87;;;3.30;99.90;;;;;;5029743;28;20198;-64
2023/02/20 06:13:58;;;;;;;10.17;9.30;;;3.30;99.90;;;;;;5033085;28;20217;-65
2023/02/20 06:16:26;;;;;;;14.30;8.53;;;3.30;99.90;;;;;;5029930;28;20637;-65
2023/02/20 06:18:52;;;;;;;9.40;8.60;;;3.20;99.90;;;;;;5023406;28;20201;-65
2023/02/20 06:21:19;;;;;;;9.00;8.20;;;3.10;99.90;;;;;;5021112;28;20211;-65
2023/02/20 06:23:45;;;;;;;11.43;8.17;;;3.10;99.90;;;;;;5029563;28;20187;-65
2023/02/20 06:26:12;;;;;;;8.53;7.83;;;3.00;99.90;;;;;;5031149;28;21598;-65
2023/02/20 06:28:39;;;;;;;7.47;6.97;;;3.00;99.90;;;;;;5029649;28;20207;-65
2023/02/20 06:31:08;;;;;;;8.13;7.47;;;2.90;99.90;;;;;;5030899;28;20199;-65
2023/02/20 06:33:33;;;;;;;7.97;7.47;;;2.90;99.90;;;;;;5034216;28;20180;-65
2023/02/20 06:35:59;;;;;;;8.40;7.80;;;2.90;99.90;;;;;;5034437;28;20179;-65
2023/02/20 06:38:25;;;;;;;9.77;7.77;;;2.90;99.90;;;;;;5031007;28;20226;-64
2023/02/20 06:40:51;;;;;;;11.37;8.27;;;2.90;99.90;;;;;;5031282;28;20225;-66
2023/02/20 06:43:17;;;;;;;9.20;8.33;;;3.00;99.90;;;;;;5031366;28;20183;-65
2023/02/20 06:45:43;;;;;;;8.10;7.33;;;3.00;99.90;;;;;;5019524;28;20200;-65
2023/02/20 06:48:09;;;;;;;8.73;7.90;;;3.00;99.90;;;;;;5022781;28;20303;-65
2023/02/20 06:50:34;;;;;;;7.83;7.30;;;3.00;99.90;;;;;;5036130;28;20691;-65
2023/02/20 06:53:00;;;;;;;7.87;7.10;;;3.00;99.90;;;;;;5032351;28;20249;-65
2023/02/20 06:55:25;;;;;;;8.37;7.83;;;3.20;99.90;;;;;;5032234;28;20210;-65
2023/02/20 06:57:51;;;;;;;9.40;8.83;;;3.40;99.90;;;;;;5032082;28;20187;-65
2023/02/20 07:00:17;;;;;;;11.93;10.60;;;3.60;99.90;;;;;;5033813;28;20257;-65
2023/02/20 07:02:43;;;;;;;10.80;10.10;;;3.80;99.90;;;;;;5032705;28;20198;-65
2023/02/20 07:05:10;;;;;;;9.13;8.43;;;3.90;99.90;;;;;;5034494;28;20183;-65
2023/02/20 07:07:36;;;;;;;10.57;9.60;;;4.10;99.90;;;;;;5032359;28;20542;-64
2023/02/20 07:10:04;;;;;;;8.57;7.83;;;4.10;99.90;;;;;;5031199;28;20206;-65
2023/02/20 07:12:31;;;;;;;8.73;8.10;;;4.20;99.90;;;;;;5031577;28;20203;-65
2023/02/20 07:14:57;;;;;;;9.57;7.80;;;4.20;99.90;;;;;;5031419;28;20637;-64
2023/02/20 07:17:23;;;;;;;9.97;9.07;;;4.30;99.90;;;;;;5018856;28;20184;-64
2023/02/20 07:19:49;;;;;;;8.70;8.10;;;4.30;99.90;;;;;;5030466;28;20321;-65
2023/02/20 07:22:14;;;;;;;7.93;7.33;;;4.40;99.90;;;;;;5025219;28;20223;-64
2023/02/20 07:24:40;;;;;;;11.63;10.53;;;4.60;99.90;;;;;;5031778;28;20198;-65
2023/02/20 07:27:09;;;;;;;8.50;7.80;;;4.70;99.90;;;;;;5030499;28;20298;-64
2023/02/20 07:29:40;;;;;;;11.07;9.97;;;4.80;99.90;;;;;;5030201;28;20183;-65
2023/02/20 07:32:07;;;;;;;17.10;8.13;;;4.90;99.90;;;;;;5031026;28;20532;-65
2023/02/20 07:34:33;;;;;;;10.33;7.70;;;5.10;99.90;;;;;;5022367;28;20180;-65
2023/02/20 07:36:59;;;;;;;8.93;8.10;;;5.20;99.90;;;;;;5027521;28;20175;-65
2023/02/20 07:39:25;;;;;;;17.43;10.47;;;5.30;99.90;;;;;;5031339;28;20233;-65
2023/02/20 07:41:51;;;;;;;11.60;10.63;;;5.40;99.90;;;;;;5031150;28;20692;-65
2023/02/20 07:44:16;;;;;;;10.70;9.17;;;5.50;99.90;;;;;;5027673;28;20218;-65
2023/02/20 07:46:42;;;;;;;8.27;7.70;;;5.60;99.90;;;;;;5028418;28;20203;-65
2023/02/20 07:49:08;;;;;;;10.87;9.73;;;5.60;99.90;;;;;;5029609;28;20183;-64
2023/02/20 07:51:33;;;;;;;18.43;9.50;;;5.70;99.90;;;;;;5057182;22;20308;-64
2023/02/20 07:54:00;;;;;;;9.83;8.83;;;5.80;99.90;;;;;;5028329;28;20214;-65
2023/02/20 07:56:26;;;;;;;10.87;9.03;;;5.80;99.90;;;;;;5027800;28;20239;-65
2023/02/20 07:58:51;;;;;;;14.00;9.93;;;5.90;99.90;;;;;;5028755;28;20258;-64
2023/02/20 08:01:17;;;;;;;10.73;9.53;;;5.90;99.90;;;;;;5021506;28;20596;-65
2023/02/20 08:03:43;;;;;;;12.70;10.90;;;6.00;99.90;;;;;;5026215;28;20176;-64
2023/02/20 08:06:09;;;;;;;12.43;11.33;;;6.00;99.90;;;;;;5027653;28;20211;-64
2023/02/20 08:08:35;;;;;;;27.23;11.30;;;6.10;99.90;;;;;;5027419;28;20171;-64
2023/02/20 08:11:01;;;;;;;11.07;10.00;;;6.20;99.90;;;;;;5027445;28;20699;-64
2023/02/20 08:13:27;;;;;;;15.50;9.80;;;6.20;99.90;;;;;;5029111;28;20210;-64
2023/02/20 08:15:52;;;;;;;13.77;10.90;;;6.20;99.90;;;;;;5027968;28;20175;-64
2023/02/20 08:18:18;;;;;;;10.00;9.00;;;6.30;99.90;;;;;;5029340;28;20176;-64
2023/02/20 08:20:44;;;;;;;13.80;10.37;;;6.30;99.90;;;;;;5029144;28;20214;-64
2023/02/20 08:23:35;;;;;;;12.80;10.10;;;6.30;99.90;;;;;;5028255;28;20210;-64
2023/02/20 08:26:03;;;;;;;12.27;10.73;;;6.40;99.90;;;;;;5023828;28;20268;-64
2023/02/20 08:28:29;;;;;;;14.00;11.00;;;6.40;99.90;;;;;;5025266;28;20195;-64
2023/02/20 08:30:55;;;;;;;13.60;8.83;;;6.50;99.90;;;;;;5029711;28;20203;-64
2023/02/20 08:33:20;;;;;;;12.00;9.50;;;6.60;99.90;;;;;;5023200;28;20190;-64
2023/02/20 08:35:48;;;;;;;11.97;9.83;;;6.60;99.90;;;;;;5024283;28;20188;-64
2023/02/20 08:38:25;;;;;;;9.77;8.90;;;6.60;99.90;;;;;;5029110;28;20179;-64
2023/02/20 08:40:51;;;;;;;14.17;10.00;;;6.60;99.90;;;;;;5025629;28;20259;-64
2023/02/20 08:43:16;;;;;;;9.50;8.70;;;6.70;99.90;;;;;;5027247;28;20270;-64
2023/02/20 08:45:42;;;;;;;12.53;9.63;;;6.70;99.90;;;;;;5028771;28;20194;-64
2023/02/20 08:48:08;;;;;;;12.23;9.63;;;6.70;99.90;;;;;;5029714;28;20248;-64
2023/02/20 08:50:33;;;;;;;9.57;8.77;;;6.70;99.90;;;;;;5031185;28;20203;-64
2023/02/20 08:52:59;;;;;;;11.57;9.40;;;6.70;99.90;;;;;;5023688;28;20226;-64
2023/02/20 08:55:25;;;;;;;10.30;9.50;;;6.70;99.90;;;;;;5025469;28;21024;-64
2023/02/20 08:57:50;;;;;;;9.40;8.43;;;6.70;99.90;;;;;;5034380;28;20274;-64
2023/02/20 09:00:17;;;;;;;9.27;8.50;;;6.70;99.90;;;;;;5027765;28;20723;-64
2023/02/20 09:02:45;;;;;;;9.83;9.03;;;6.70;99.90;;;;;;5028098;28;20167;-64
2023/02/20 09:05:11;;;;;;;7.63;7.10;;;6.80;99.90;;;;;;5020995;28;20241;-64
2023/02/20 09:07:36;;;;;;;9.10;8.50;;;6.80;99.90;;;;;;5029870;28;20214;-64
2023/02/20 09:10:03;;;;;;;12.23;8.80;;;6.90;99.90;;;;;;5030825;28;20254;-64
2023/02/20 09:12:29;;;;;;;9.27;8.57;;;7.10;99.90;;;;;;5029627;28;20246;-65
2023/02/20 09:14:55;;;;;;;10.77;9.67;;;7.20;99.90;;;;;;5029868;28;20176;-62
2023/02/20 09:17:21;;;;;;;20.23;10.53;;;7.20;99.90;;;;;;5030633;28;20312;-64
2023/02/20 09:19:46;;;;;;;11.27;10.37;;;7.40;99.90;;;;;;5030281;28;20696;-65
2023/02/20 09:22:12;;;;;;;9.83;9.13;;;7.40;99.90;;;;;;5030896;28;20195;-65
2023/02/20 09:24:37;;;;;;;10.43;9.53;;;7.30;99.90;;;;;;5032244;28;20586;-64
2023/02/20 09:27:07;;;;;;;12.67;10.50;;;7.40;99.90;;;;;;5029920;28;20298;-65
2023/02/20 09:29:35;;;;;;;11.73;10.53;;;7.40;99.90;;;;;;5031099;28;20176;-64
2023/02/20 09:32:01;;;;;;;10.33;9.43;;;7.50;99.90;;;;;;5032905;28;20218;-64
2023/02/20 09:34:26;;;;;;;10.43;9.57;;;7.50;99.90;;;;;;5031801;28;20183;-63
2023/02/20 09:36:52;;;;;;;11.37;8.77;;;7.60;99.90;;;;;;5028987;28;20190;-64
2023/02/20 09:39:18;;;;;;;13.23;10.13;;;7.80;99.90;;;;;;5023809;28;20191;-64
2023/02/20 09:42:37;;;;;;;9.63;8.47;;;7.90;99.90;;;;;;5025945;28;20937;-65
2023/02/20 09:45:06;;;;;;;12.53;10.00;;;7.90;99.90;;;;;;5009534;28;20679;-64
2023/02/20 09:47:40;;;;;;;14.10;10.57;;;7.90;99.90;;;;;;5023411;28;20575;-64
2023/02/20 09:50:15;;;;;;;9.80;9.00;;;7.90;99.90;;;;;;5026684;28;20191;-64
2023/02/20 09:52:45;;;;;;;11.37;10.37;;;7.90;99.90;;;;;;5028797;28;20183;-64
2023/02/20 09:55:18;;;;;;;10.03;8.93;;;8.00;99.90;;;;;;5028898;28;20645;-65
2023/02/20 09:57:50;;;;;;;11.13;10.00;;;8.00;99.90;;;;;;5025287;28;20201;-64
2023/02/20 10:00:30;;;;;;;11.17;10.50;;;8.20;99.90;;;;;;5028026;28;20207;-64
2023/02/20 10:03:39;;;;;;;18.23;16.77;;;8.20;99.90;;;;;;5022841;28;20709;-64
2023/02/20 10:06:15;;;;;;;20.57;10.60;;;8.10;99.90;;;;;;5020102;28;20248;-65
2023/02/20 10:08:42;;;;;;;12.70;11.13;;;8.20;99.90;;;;;;5024605;28;20203;-64
2023/02/20 10:11:15;;;;;;;12.53;10.47;;;8.20;99.90;;;;;;5027899;28;20206;-64
2023/02/20 10:14:06;;;;;;;10.43;9.50;;;8.30;99.90;;;;;;5026717;28;20237;-64
2023/02/20 10:16:45;;;;;;;10.67;9.03;;;8.60;99.90;;;;;;5027823;28;20199;-64
2023/02/20 10:19:29;;;;;;;10.07;9.17;;;8.70;99.90;;;;;;5030296;28;20262;-65
2023/02/20 10:22:18;;;;;;;10.33;9.23;;;8.70;99.90;;;;;;5029260;28;20831;-65
2023/02/20 10:25:08;;;;;;;10.60;9.70;;;8.70;99.90;;;;;;5030418;28;20305;-64
2023/02/20 10:27:50;;;;;;;14.57;11.00;;;8.70;99.90;;;;;;5031133;28;20215;-66
2023/02/20 10:30:23;;;;;;;10.00;8.80;;;8.90;99.90;;;;;;5027786;28;20238;-65
2023/02/20 10:32:57;;;;;;;10.77;9.90;;;8.90;99.90;;;;;;5022128;28;20201;-63
2023/02/20 10:35:46;;;;;;;12.83;11.83;;;9.00;99.90;;;;;;5022633;28;20557;-64
2023/02/20 10:38:17;;;;;;;14.73;10.13;;;9.00;99.90;;;;;;5024521;28;20696;-63
2023/02/20 10:40:50;;;;;;;10.43;9.43;;;9.20;99.90;;;;;;5029506;28;20277;-63
2023/02/20 10:43:34;;;;;;;14.57;12.40;;;9.30;99.90;;;;;;5024451;28;20210;-63
2023/02/20 10:46:24;;;;;;;13.03;12.13;;;9.30;99.90;;;;;;5031254;28;20464;-63
2023/02/20 10:48:55;;;;;;;11.70;10.50;;;9.50;99.90;;;;;;5032966;28;20202;-63
2023/02/20 10:51:27;;;;;;;12.47;11.37;;;9.60;99.90;;;;;;5032490;28;20318;-63
2023/02/20 10:54:17;;;;;;;11.77;10.87;;;9.70;99.90;;;;;;5033063;28;20176;-64
2023/02/20 10:57:01;;;;;;;12.07;10.97;;;9.80;99.90;;;;;;5033187;28;20517;-64
2023/02/20 10:59:50;;;;;;;9.70;8.80;;;9.70;99.90;;;;;;5031558;28;20171;-64
2023/02/20 11:02:21;;;;;;;17.73;16.53;;;9.60;99.90;;;;;;5029292;28;20210;-64
2023/02/20 11:04:56;;;;;;;9.03;8.23;;;9.60;99.90;;;;;;5027098;28;20669;-64
2023/02/20 11:07:22;;;;;;;11.17;8.97;;;9.80;99.90;;;;;;5031048;28;20272;-64
2023/02/20 11:09:48;;;;;;;11.23;8.23;;;9.90;99.90;;;;;;5031477;28;20179;-65
2023/02/20 11:12:49;;;;;;;11.07;9.50;;;9.90;99.90;;;;;;5031943;28;20668;-64
2023/02/20 11:15:24;;;;;;;9.80;8.97;;;10.00;99.90;;;;;;5025520;28;20199;-64
2023/02/20 11:17:52;;;;;;;8.43;7.73;;;9.90;99.90;;;;;;5034949;28;20176;-65
2023/02/20 11:20:34;;;;;;;9.37;8.57;;;9.90;99.90;;;;;;5025041;28;20286;-65
2023/02/20 11:23:01;;;;;;;11.40;10.30;;;9.80;99.90;;;;;;5052271;28;20175;-64
2023/02/20 11:25:33;;;;;;;10.37;9.37;;;9.80;99.90;;;;;;5051921;28;20241;-64
2023/02/20 11:28:17;;;;;;;11.87;10.73;;;10.10;99.90;;;;;;5052122;28;20202;-65
2023/02/20 11:30:45;;;;;;;9.77;8.87;;;10.30;99.90;;;;;;5051675;28;20247;-64
2023/02/20 11:33:14;;;;;;;10.03;9.23;;;10.60;99.90;;;;;;5051981;28;20694;-64
2023/02/20 11:35:41;;;;;;;13.30;9.80;;;10.70;99.90;;;;;;5051843;28;20201;-64
2023/02/20 11:38:22;;;;;;;10.77;9.77;;;10.70;99.90;;;;;;5052036;28;20261;-64
2023/02/20 11:41:01;;;;;;;12.03;9.27;;;10.90;99.90;;;;;;5042895;28;20269;-64
2023/02/20 11:43:47;;;;;;;10.83;9.73;;;11.00;99.90;;;;;;5029598;28;20716;-64
2023/02/20 11:46:14;;;;;;;9.07;8.03;;;11.10;99.90;;;;;;5031711;28;20189;-65
2023/02/20 11:49:08;;;;;;;9.67;8.47;;;11.40;99.90;;;;;;5018918;28;20183;-64
2023/02/20 11:51:39;;;;;;;10.30;8.50;;;11.60;99.90;;;;;;5022223;28;20206;-65
2023/02/20 11:54:17;;;;;;;10.13;8.77;;;11.70;99.90;;;;;;5031002;28;20253;-64
2023/02/20 11:57:00;;;;;;;13.27;11.13;;;11.80;99.90;;;;;;5012142;28;20179;-65
2023/02/20 11:59:33;;;;;;;12.17;11.07;;;11.50;99.90;;;;;;5029039;28;20193;-65
2023/02/20 12:02:16;;;;;;;12.70;9.97;;;11.10;99.90;;;;;;5021520;28;20211;-64
2023/02/20 12:04:44;;;;;;;10.03;9.13;;;11.00;99.90;;;;;;5022259;28;20206;-65
2023/02/20 12:07:28;;;;;;;16.00;8.80;;;10.70;99.90;;;;;;5019758;28;20196;-65
2023/02/20 12:09:57;;;;;;;15.83;10.10;;;10.30;99.90;;;;;;5011272;28;20199;-64
2023/02/20 12:12:27;;;;;;;15.23;11.43;;;10.30;99.90;;;;;;5011795;28;20234;-64
2023/02/20 12:14:53;;;;;;;9.47;8.57;;;10.30;99.90;;;;;;5010086;28;20259;-65
2023/02/20 12:17:38;;;;;;;10.97;8.73;;;10.50;99.90;;;;;;5011541;28;20716;-65
2023/02/20 12:20:13;;;;;;;10.20;9.07;;;10.60;99.90;;;;;;5011766;28;20638;-64
2023/02/20 12:23:01;;;;;;;14.80;10.63;;;10.50;99.90;;;;;;5014450;28;20679;-64
2023/02/20 12:25:35;;;;;;;10.53;9.47;;;10.50;99.90;;;;;;5014354;28;20184;-64
2023/02/20 12:28:07;;;;;;;16.20;10.30;;;10.40;99.90;;;;;;5015723;28;20294;-65
2023/02/20 12:31:20;;;;;;;12.03;9.80;;;10.30;99.90;;;;;;5015918;28;20669;-64
2023/02/20 12:34:07;;;;;;;15.60;10.30;;;10.40;99.90;;;;;;4996018;28;20689;-64
2023/02/20 12:36:40;;;;;;;12.90;10.47;;;10.50;99.90;;;;;;5015569;28;20214;-64
2023/02/20 12:39:15;;;;;;;12.77;10.60;;;10.40;99.90;;;;;;5015398;28;20176;-65
2023/02/20 12:42:05;;;;;;;11.33;9.30;;;10.40;99.90;;;;;;5015080;28;20202;-64
2023/02/20 12:44:56;;;;;;;19.83;10.47;;;10.40;99.90;;;;;;5015325;28;20183;-64
2023/02/20 12:47:32;;;;;;;12.93;9.93;;;10.60;99.90;;;;;;5015150;28;20210;-64
2023/02/20 12:50:21;;;;;;;10.80;9.30;;;10.50;99.90;;;;;;5014967;28;20207;-64
2023/02/20 12:53:18;;;;;;;11.40;9.97;;;10.40;99.90;;;;;;5015448;28;20208;-64
2023/02/20 12:56:19;;;;;;;9.83;8.83;;;10.40;99.90;;;;;;5015222;28;20184;-65
2023/02/20 12:59:21;;;;;;;11.67;9.40;;;10.50;99.90;;;;;;5015288;28;20513;-64
2023/02/20 13:01:49;;;;;;;10.97;9.53;;;10.40;99.90;;;;;;5014783;28;20196;-64
2023/02/20 13:04:24;;;;;;;11.00;9.90;;;10.30;99.90;;;;;;5014840;28;20176;-65
2023/02/20 13:07:00;;;;;;;10.43;9.23;;;10.30;99.90;;;;;;5014919;28;20574;-65
2023/02/20 13:09:31;;;;;;;11.40;8.83;;;10.50;99.90;;;;;;5014589;28;20208;-64
2023/02/20 13:12:03;;;;;;;13.17;10.40;;;10.60;99.90;;;;;;5014785;28;20228;-64
2023/02/20 13:14:54;;;;;;;11.53;10.43;;;10.70;99.90;;;;;;5014163;28;20180;-64
2023/02/20 13:17:38;;;;;;;9.70;8.73;;;10.70;99.90;;;;;;5011620;28;20250;-65
2023/02/20 13:20:15;;;;;;;11.93;10.30;;;10.50;99.90;;;;;;5014252;28;20263;-64
2023/02/20 13:22:41;;;;;;;10.77;9.67;;;10.40;99.90;;;;;;5014744;28;20218;-65